Time;durP1;ratioP1;P1;durP2;ratioP2;P2;SDS_P1;SDS_P2;PMS_P1;PMS_P2;Temp;Humidity;BMP_temperature;BMP_pressure;BME280_temperature;BME280_humidity;BME280_pressure;Samples;Min_cycle;Max_cycle;Signal;HPM_P1;HPM_P2
2023/04/06 00:01:37;;;;;;;15.18;7.78;;;2.40;99.90;;;;;;5051740;28;20382;-52
2023/04/06 00:04:03;;;;;;;15.48;7.70;;;2.40;99.90;;;;;;5049479;28;20408;-53
2023/04/06 00:06:28;;;;;;;15.83;7.93;;;2.40;99.90;;;;;;5051408;28;20423;-52
2023/04/06 00:08:55;;;;;;;15.70;7.30;;;2.40;99.90;;;;;;5050968;28;20435;-52
2023/04/06 00:11:22;;;;;;;17.30;7.32;;;2.30;99.90;;;;;;5051026;28;20410;-52
2023/04/06 00:13:48;;;;;;;18.52;7.78;;;2.10;99.90;;;;;;5050993;28;20737;-53
2023/04/06 00:16:14;;;;;;;18.00;7.65;;;2.00;99.90;;;;;;5050881;28;20434;-52
2023/04/06 00:18:40;;;;;;;16.23;7.50;;;1.90;99.90;;;;;;5050824;28;20847;-53
2023/04/06 00:21:06;;;;;;;20.08;8.07;;;1.80;99.90;;;;;;5050042;28;21176;-52
2023/04/06 00:23:32;;;;;;;21.43;8.50;;;1.90;99.90;;;;;;5051145;28;20377;-52
2023/04/06 00:25:57;;;;;;;14.90;7.28;;;1.90;99.90;;;;;;5050575;28;20382;-52
2023/04/06 00:28:26;;;;;;;15.73;7.38;;;1.90;99.90;;;;;;5050913;28;20759;-52
2023/04/06 00:30:53;;;;;;;16.85;8.38;;;1.90;99.90;;;;;;5049797;28;20406;-54
2023/04/06 00:33:20;;;;;;;16.67;7.30;;;1.90;99.90;;;;;;5050911;28;20425;-52
2023/04/06 00:35:45;;;;;;;14.68;7.00;;;1.80;99.90;;;;;;5051071;28;20413;-52
2023/04/06 00:38:12;;;;;;;14.38;6.93;;;1.70;99.90;;;;;;5049748;28;20405;-52
2023/04/06 00:40:39;;;;;;;19.47;8.20;;;1.70;99.90;;;;;;5050704;28;20506;-52
2023/04/06 00:43:05;;;;;;;20.03;10.17;;;1.80;99.90;;;;;;5050522;28;20483;-52
2023/04/06 00:45:32;;;;;;;22.08;9.93;;;1.90;99.90;;;;;;5051037;28;20385;-52
2023/04/06 00:47:57;;;;;;;17.08;8.27;;;1.80;99.90;;;;;;5049506;28;20739;-52
2023/04/06 00:50:23;;;;;;;17.50;7.90;;;1.90;99.90;;;;;;5050579;28;20381;-52
2023/04/06 00:52:49;;;;;;;17.52;8.13;;;1.80;99.90;;;;;;5049893;28;20402;-53
2023/04/06 00:55:15;;;;;;;16.97;7.40;;;1.70;99.90;;;;;;5050743;28;20873;-53
2023/04/06 00:57:40;;;;;;;18.20;8.40;;;1.70;99.90;;;;;;5050235;28;20393;-52
2023/04/06 01:00:07;;;;;;;16.08;7.78;;;1.80;99.90;;;;;;5049859;28;21123;-52
2023/04/06 01:02:32;;;;;;;16.60;7.70;;;1.70;99.90;;;;;;5049518;28;20432;-52
2023/04/06 01:04:58;;;;;;;15.15;7.10;;;1.70;99.90;;;;;;5049705;28;20942;-52
2023/04/06 01:07:24;;;;;;;17.55;7.90;;;1.80;99.90;;;;;;5050238;28;20878;-52
2023/04/06 01:09:50;;;;;;;16.30;6.78;;;1.80;99.90;;;;;;5049505;28;20393;-54
2023/04/06 01:12:16;;;;;;;15.07;7.25;;;1.90;99.90;;;;;;5050333;28;20401;-52
2023/04/06 01:14:41;;;;;;;20.33;7.90;;;1.80;99.90;;;;;;5050220;28;20381;-52
2023/04/06 01:17:07;;;;;;;14.27;6.80;;;1.80;99.90;;;;;;5049527;28;20374;-52
2023/04/06 01:19:32;;;;;;;18.70;8.20;;;1.70;99.90;;;;;;5050172;28;20393;-52
2023/04/06 01:21:58;;;;;;;18.00;7.20;;;1.60;99.90;;;;;;5048840;28;20413;-52
2023/04/06 01:24:24;;;;;;;17.37;7.13;;;1.60;99.90;;;;;;5050175;28;20455;-52
2023/04/06 01:26:50;;;;;;;16.20;7.32;;;1.60;99.90;;;;;;5049542;28;20465;-53
2023/04/06 01:29:16;;;;;;;17.15;7.63;;;2.00;99.90;;;;;;5049505;28;20412;-52
2023/04/06 01:31:42;;;;;;;21.98;7.68;;;1.50;99.90;;;;;;5049778;28;20420;-53
2023/04/06 01:34:08;;;;;;;15.77;7.67;;;1.50;99.90;;;;;;5049043;28;20736;-52
2023/04/06 01:36:33;;;;;;;14.50;7.13;;;1.40;99.90;;;;;;5049801;28;20484;-52
2023/04/06 01:38:59;;;;;;;15.98;6.80;;;1.40;99.90;;;;;;5049063;28;20389;-52
2023/04/06 01:41:26;;;;;;;18.98;7.50;;;1.50;99.90;;;;;;5050245;28;20861;-52
2023/04/06 01:43:54;;;;;;;18.13;7.50;;;1.40;99.90;;;;;;5048857;28;20389;-53
2023/04/06 01:46:20;;;;;;;15.00;7.60;;;1.30;99.90;;;;;;5049694;28;20382;-52
2023/04/06 01:48:45;;;;;;;17.43;7.80;;;1.50;99.90;;;;;;5049818;28;20378;-52
2023/04/06 01:51:11;;;;;;;17.20;7.43;;;1.30;1.00;;;;;;5048631;28;20389;-52
2023/04/06 01:53:37;;;;;;;16.10;7.90;;;1.20;1.00;;;;;;5049538;28;20374;-52
2023/04/06 01:56:02;;;;;;;18.90;8.60;;;1.00;1.00;;;;;;5048993;28;20386;-52
2023/04/06 01:58:28;;;;;;;18.00;7.50;;;1.00;1.00;;;;;;5049579;28;20409;-52
2023/04/06 02:00:54;;;;;;;15.20;7.20;;;1.90;1.00;;;;;;5055297;28;20393;-52
2023/04/06 02:03:19;;;;;;;19.90;8.45;;;1.00;1.00;;;;;;5055957;28;20389;-52
2023/04/06 02:05:45;;;;;;;15.45;6.70;;;1.10;1.00;;;;;;5055897;28;20389;-55
2023/04/06 02:08:11;;;;;;;15.83;7.30;;;1.10;1.00;;;;;;5055359;28;21248;-52
2023/04/06 02:10:36;;;;;;;15.40;6.93;;;1.20;1.00;;;;;;5055846;28;20381;-52
2023/04/06 02:13:02;;;;;;;18.13;7.50;;;1.20;1.00;;;;;;5055395;28;20500;-52
2023/04/06 02:15:28;;;;;;;17.67;7.67;;;1.10;1.00;;;;;;5056317;28;20416;-52
2023/04/06 02:17:53;;;;;;;16.70;7.00;;;1.10;1.00;;;;;;5055440;28;20377;-52
2023/04/06 02:20:19;;;;;;;16.75;7.63;;;1.00;1.00;;;;;;5055956;28;20475;-52
2023/04/06 02:22:45;;;;;;;17.27;7.70;;;1.30;1.00;;;;;;5056346;28;20377;-52
2023/04/06 02:25:11;;;;;;;16.55;8.18;;;0.80;1.00;;;;;;5055480;28;20385;-52
2023/04/06 02:27:37;;;;;;;18.40;7.72;;;0.70;1.00;;;;;;5056114;28;20492;-52
2023/04/06 02:30:04;;;;;;;20.45;7.70;;;1.90;1.00;;;;;;5055241;28;20587;-52
2023/04/06 02:32:30;;;;;;;15.75;7.50;;;0.90;1.00;;;;;;5055732;28;20423;-55
2023/04/06 02:34:55;;;;;;;18.27;7.90;;;0.90;1.00;;;;;;5055211;28;20377;-52
2023/04/06 02:37:23;;;;;;;17.30;7.90;;;1.00;1.00;;;;;;5056281;28;20381;-52
2023/04/06 02:39:48;;;;;;;13.98;6.80;;;1.10;1.00;;;;;;5056003;28;20385;-53
2023/04/06 02:42:15;;;;;;;17.77;8.00;;;1.20;1.00;;;;;;5055553;28;20384;-52
2023/04/06 02:44:41;;;;;;;15.80;7.30;;;1.30;1.00;;;;;;5056073;28;20434;-52
2023/04/06 02:47:07;;;;;;;14.82;7.15;;;1.20;1.00;;;;;;5054884;28;20396;-52
2023/04/06 02:49:32;;;;;;;18.50;7.73;;;2.40;1.00;;;;;;5056004;28;20381;-52
2023/04/06 02:51:58;;;;;;;16.10;7.50;;;1.00;1.00;;;;;;5053912;28;20409;-52
2023/04/06 02:54:24;;;;;;;19.88;8.55;;;1.00;1.00;;;;;;5056045;28;20392;-52
2023/04/06 02:56:49;;;;;;;15.50;7.40;;;0.90;1.00;;;;;;5055372;28;20378;-53
2023/04/06 02:59:15;;;;;;;18.33;8.60;;;0.80;1.00;;;;;;5054173;28;20441;-53
2023/04/06 03:01:42;;;;;;;16.73;7.25;;;1.60;20.20;;;;;;5055404;28;20392;-52
2023/04/06 03:04:07;;;;;;;15.15;8.23;;;0.70;35.00;;;;;;5054969;28;20472;-52
2023/04/06 03:06:33;;;;;;;16.07;7.90;;;0.70;78.40;;;;;;5055742;28;20461;-51
2023/04/06 03:08:59;;;;;;;15.70;7.37;;;0.60;70.70;;;;;;5054939;28;20476;-52
2023/04/06 03:11:26;;;;;;;16.23;7.07;;;0.60;99.00;;;;;;5053791;28;20501;-52
2023/04/06 03:13:51;;;;;;;16.80;7.50;;;0.70;50.60;;;;;;5051756;28;20389;-53
2023/04/06 03:16:17;;;;;;;19.50;7.97;;;2.10;49.00;;;;;;5052229;28;20385;-52
2023/04/06 03:18:44;;;;;;;19.87;8.20;;;0.60;95.80;;;;;;5052331;28;20770;-52
2023/04/06 03:21:10;;;;;;;20.60;8.05;;;1.40;99.90;;;;;;5051787;28;20385;-51
2023/04/06 03:23:36;;;;;;;17.35;7.70;;;0.80;1.00;;;;;;5052351;28;20467;-51
2023/04/06 03:26:02;;;;;;;16.50;7.70;;;0.70;1.00;;;;;;5051553;28;20472;-54
2023/04/06 03:28:28;;;;;;;20.48;8.75;;;0.60;1.00;;;;;;5052111;28;20416;-54
2023/04/06 03:30:53;;;;;;;14.93;7.00;;;0.50;1.00;;;;;;5050944;28;21359;-52
2023/04/06 03:33:20;;;;;;;16.90;7.53;;;1.40;26.50;;;;;;5051812;28;20970;-52
2023/04/06 03:35:45;;;;;;;18.40;7.80;;;0.50;99.90;;;;;;5052211;28;20477;-51
2023/04/06 03:38:11;;;;;;;18.80;7.67;;;0.50;99.90;;;;;;5051608;28;20457;-51
2023/04/06 03:40:36;;;;;;;23.92;8.50;;;0.60;99.90;;;;;;5052115;28;20417;-51
2023/04/06 03:43:02;;;;;;;15.70;8.13;;;0.60;99.90;;;;;;5051308;28;20381;-52
2023/04/06 03:45:28;;;;;;;18.23;8.77;;;1.00;99.90;;;;;;5052065;28;20378;-52
2023/04/06 03:47:53;;;;;;;17.50;8.50;;;0.50;99.90;;;;;;5051090;28;20373;-52
2023/04/06 03:50:20;;;;;;;18.48;8.38;;;0.50;99.90;;;;;;5052241;28;20857;-51
2023/04/06 03:52:46;;;;;;;19.33;8.95;;;0.70;99.90;;;;;;5051814;28;20401;-51
2023/04/06 03:55:12;;;;;;;19.58;8.40;;;0.60;80.80;;;;;;5051188;28;20401;-51
2023/04/06 03:57:37;;;;;;;20.20;7.27;;;0.60;20.40;;;;;;5051499;28;20392;-54
2023/04/06 04:00:04;;;;;;;17.92;8.00;;;0.60;16.00;;;;;;5051038;28;20392;-54
2023/04/06 04:02:29;;;;;;;16.77;7.25;;;0.40;1.00;;;;;;5051811;28;20839;-51
2023/04/06 04:04:55;;;;;;;17.07;8.10;;;0.30;98.00;;;;;;5050900;28;20385;-54
2023/04/06 04:07:21;;;;;;;16.75;7.40;;;0.40;99.90;;;;;;5051610;28;20386;-54
2023/04/06 04:09:47;;;;;;;17.63;8.15;;;1.50;99.90;;;;;;5051648;28;20397;-54
2023/04/06 04:12:14;;;;;;;14.48;6.50;;;1.60;99.90;;;;;;5050649;28;20413;-54
2023/04/06 04:14:40;;;;;;;24.30;8.52;;;0.30;99.90;;;;;;5051565;28;20386;-54
2023/04/06 04:17:05;;;;;;;16.55;7.25;;;0.30;99.90;;;;;;5050871;28;20385;-54
2023/04/06 04:19:31;;;;;;;16.52;8.15;;;0.20;99.90;;;;;;5051228;28;20389;-54
2023/04/06 04:21:57;;;;;;;18.23;7.82;;;1.00;99.90;;;;;;5050256;28;20389;-54
2023/04/06 04:24:22;;;;;;;17.83;7.40;;;0.30;99.90;;;;;;5051186;28;20461;-54
2023/04/06 04:26:48;;;;;;;22.48;8.15;;;0.30;99.90;;;;;;5051251;28;20485;-54
2023/04/06 04:29:14;;;;;;;19.25;8.05;;;0.70;99.90;;;;;;5049981;28;20459;-54
2023/04/06 04:31:39;;;;;;;17.08;6.57;;;0.20;99.90;;;;;;5051058;28;20466;-54
2023/04/06 04:34:06;;;;;;;16.47;7.50;;;0.20;99.90;;;;;;5050503;28;20464;-54
2023/04/06 04:36:32;;;;;;;18.38;7.88;;;0.30;99.90;;;;;;5051156;28;20378;-52
2023/04/06 04:39:04;;;;;;;19.55;7.35;;;0.40;99.90;;;;;;5050535;28;20531;-54
2023/04/06 04:41:30;;;;;;;16.38;7.07;;;0.70;45.90;;;;;;5051027;28;20863;-52
2023/04/06 04:43:55;;;;;;;17.40;6.93;;;0.30;15.20;;;;;;5050302;28;20393;-54
2023/04/06 04:46:21;;;;;;;17.60;7.63;;;0.20;1.00;;;;;;5050539;28;20378;-52
2023/04/06 04:48:47;;;;;;;14.93;7.15;;;0.10;99.90;;;;;;5050729;28;20420;-54
2023/04/06 04:51:13;;;;;;;17.35;7.30;;;1.30;99.90;;;;;;5049583;28;20955;-52
2023/04/06 04:53:38;;;;;;;15.00;6.77;;;-0.40;99.90;;;;;;5049775;28;20859;-52
2023/04/06 04:56:04;;;;;;;16.97;7.90;;;0.80;99.90;;;;;;5049795;28;20389;-52
2023/04/06 04:58:30;;;;;;;16.73;6.25;;;0.30;99.90;;;;;;5050092;28;20392;-52
2023/04/06 05:00:55;;;;;;;17.52;7.57;;;0.30;99.90;;;;;;5049758;28;20882;-52
2023/04/06 05:03:23;;;;;;;17.33;7.83;;;0.40;99.90;;;;;;5050196;28;20383;-52
2023/04/06 05:05:49;;;;;;;18.00;7.90;;;0.50;99.90;;;;;;5048796;28;20745;-52
2023/04/06 05:08:15;;;;;;;17.87;8.33;;;0.50;47.80;;;;;;5049593;28;20419;-52
2023/04/06 05:10:41;;;;;;;16.07;7.67;;;0.50;99.90;;;;;;5050207;28;20381;-52
2023/04/06 05:13:07;;;;;;;16.90;8.23;;;0.60;99.90;;;;;;5049458;28;20409;-52
2023/04/06 05:15:34;;;;;;;16.30;7.70;;;1.50;99.90;;;;;;5049941;28;20377;-52
2023/04/06 05:18:00;;;;;;;17.67;8.27;;;0.70;99.90;;;;;;5048791;28;20981;-52
2023/04/06 05:20:27;;;;;;;17.60;8.20;;;0.90;99.90;;;;;;5050393;28;20855;-52
2023/04/06 05:22:53;;;;;;;16.35;7.32;;;1.10;98.30;;;;;;5049692;28;20405;-53
2023/04/06 05:25:21;;;;;;;17.23;7.90;;;1.30;1.00;;;;;;5049650;28;20419;-52
2023/04/06 05:27:46;;;;;;;17.23;8.77;;;1.60;1.00;;;;;;5049443;28;20500;-52
2023/04/06 05:30:12;;;;;;;16.90;7.90;;;1.70;1.00;;;;;;5048861;28;20934;-53
2023/04/06 05:32:38;;;;;;;19.63;8.35;;;2.10;1.00;;;;;;5049677;28;20412;-52
2023/04/06 05:35:04;;;;;;;15.57;7.32;;;2.40;1.00;;;;;;5048308;28;20796;-53
2023/04/06 05:37:29;;;;;;;18.92;8.30;;;2.70;1.00;;;;;;5050037;28;20381;-52
2023/04/06 05:39:55;;;;;;;18.20;8.50;;;3.10;1.00;;;;;;5031592;28;20869;-52
2023/04/06 05:42:22;;;;;;;17.77;9.13;;;3.30;1.00;;;;;;5049876;28;20389;-53
2023/04/06 05:44:48;;;;;;;17.05;8.35;;;3.60;1.00;;;;;;5049841;28;20378;-52
2023/04/06 05:47:13;;;;;;;18.73;7.78;;;4.00;1.00;;;;;;5049129;28;20389;-52
2023/04/06 05:49:41;;;;;;;17.33;8.67;;;4.50;99.90;;;;;;5049420;28;20385;-53
2023/04/06 05:52:06;;;;;;;20.55;9.32;;;4.80;99.90;;;;;;5048688;28;20420;-52
2023/04/06 05:54:32;;;;;;;16.03;8.30;;;5.10;99.90;;;;;;5049933;28;20611;-53
2023/04/06 05:56:58;;;;;;;20.05;8.90;;;5.70;99.90;;;;;;5048673;28;20479;-52
2023/04/06 05:59:24;;;;;;;21.33;9.57;;;5.90;99.90;;;;;;5049521;28;20890;-53
2023/04/06 06:01:49;;;;;;;19.30;9.23;;;6.30;99.90;;;;;;5049390;28;20397;-52
2023/04/06 06:04:16;;;;;;;17.33;9.00;;;6.60;99.90;;;;;;5043429;28;20592;-53
2023/04/06 06:06:41;;;;;;;16.30;8.40;;;6.70;99.90;;;;;;5047105;28;20413;-53
2023/04/06 06:09:07;;;;;;;18.50;9.00;;;7.10;99.90;;;;;;5049159;28;20382;-53
2023/04/06 06:11:33;;;;;;;18.00;9.17;;;7.80;99.90;;;;;;5049156;28;20422;-53
2023/04/06 06:13:59;;;;;;;17.10;8.00;;;8.50;99.90;;;;;;5048590;28;20386;-54
2023/04/06 06:16:25;;;;;;;19.17;9.30;;;9.10;99.90;;;;;;5049098;28;20862;-53
2023/04/06 06:18:51;;;;;;;18.33;9.90;;;9.10;99.90;;;;;;5049494;28;20389;-54
2023/04/06 06:21:17;;;;;;;19.15;9.95;;;9.40;99.90;;;;;;5049102;28;20381;-53
2023/04/06 06:23:42;;;;;;;18.00;9.77;;;10.20;99.90;;;;;;5049030;28;20393;-54
2023/04/06 06:26:08;;;;;;;20.33;9.45;;;10.80;99.90;;;;;;5049049;28;20397;-54
2023/04/06 06:28:34;;;;;;;21.53;10.03;;;11.00;99.90;;;;;;5049592;28;20413;-54
2023/04/06 06:31:00;;;;;;;19.40;10.48;;;11.10;99.90;;;;;;5048522;28;20924;-54
2023/04/06 06:33:26;;;;;;;21.13;10.70;;;11.70;99.90;;;;;;5049011;28;20401;-54
2023/04/06 06:35:52;;;;;;;16.87;9.60;;;12.30;99.90;;;;;;5048694;28;20389;-55
2023/04/06 06:38:18;;;;;;;23.88;11.95;;;12.50;99.90;;;;;;5049076;28;20831;-54
2023/04/06 06:40:46;;;;;;;18.85;11.20;;;12.80;99.90;;;;;;5048754;28;20386;-54
2023/04/06 06:43:11;;;;;;;17.45;10.50;;;13.20;99.90;;;;;;5048828;28;20485;-54
2023/04/06 06:45:37;;;;;;;17.53;10.73;;;13.10;99.90;;;;;;5049600;28;20777;-54
2023/04/06 06:48:03;;;;;;;22.35;12.10;;;13.30;99.90;;;;;;5051937;28;20385;-54
2023/04/06 06:50:28;;;;;;;23.35;11.70;;;13.60;99.90;;;;;;5052904;28;20871;-54
2023/04/06 06:52:54;;;;;;;17.90;10.27;;;12.60;99.90;;;;;;5052107;28;20882;-56
2023/04/06 06:55:20;;;;;;;20.38;11.85;;;13.60;99.90;;;;;;5052770;28;20444;-52
2023/04/06 06:57:46;;;;;;;20.83;11.53;;;14.10;99.90;;;;;;5052519;28;20855;-53
2023/04/06 07:00:14;;;;;;;17.67;11.13;;;14.60;99.90;;;;;;5051516;28;20390;-55
2023/04/06 07:02:40;;;;;;;20.58;11.05;;;15.40;99.90;;;;;;5052836;28;20389;-52
2023/04/06 07:05:06;;;;;;;21.23;11.73;;;15.20;99.90;;;;;;5051813;28;20385;-52
2023/04/06 07:07:33;;;;;;;19.17;12.40;;;15.10;99.90;;;;;;5052255;28;20389;-53
2023/04/06 07:09:59;;;;;;;19.55;12.13;;;15.70;99.90;;;;;;5051585;28;20385;-55
2023/04/06 07:12:25;;;;;;;18.98;10.48;;;16.10;99.90;;;;;;5051990;28;20496;-58
2023/04/06 07:14:51;;;;;;;17.45;9.73;;;16.10;99.90;;;;;;5051891;28;20480;-58
2023/04/06 07:17:16;;;;;;;20.10;11.00;;;15.50;99.90;;;;;;5051817;28;20911;-58
2023/04/06 07:19:42;;;;;;;16.90;10.68;;;15.30;99.90;;;;;;5052179;28;20377;-58
2023/04/06 07:22:08;;;;;;;22.30;11.40;;;15.50;99.90;;;;;;5051244;28;20386;-56
2023/04/06 07:24:33;;;;;;;18.73;10.13;;;15.40;99.90;;;;;;5051972;28;20405;-56
2023/04/06 07:27:00;;;;;;;17.17;10.60;;;15.80;99.90;;;;;;5033809;28;20847;-54
2023/04/06 07:29:26;;;;;;;21.67;11.10;;;16.20;99.90;;;;;;5051419;28;21004;-56
2023/04/06 07:31:52;;;;;;;20.48;10.90;;;16.90;99.90;;;;;;5051817;28;20428;-55
2023/04/06 07:34:18;;;;;;;20.13;10.80;;;17.00;99.90;;;;;;5051252;28;20398;-55
2023/04/06 07:36:44;;;;;;;23.05;11.45;;;16.90;99.90;;;;;;5051502;28;20788;-54
2023/04/06 07:39:10;;;;;;;18.60;10.60;;;17.10;99.90;;;;;;5051190;28;20374;-56
2023/04/06 07:41:36;;;;;;;18.83;10.30;;;17.60;99.90;;;;;;5051783;28;20385;-54
2023/04/06 07:44:02;;;;;;;18.30;13.87;;;16.90;99.90;;;;;;5051409;28;20701;-54
2023/04/06 07:46:28;;;;;;;23.95;15.43;;;;;;;;;;5033900;28;20393;-54
2023/04/06 07:48:53;;;;;;;20.58;14.77;;;18.40;99.90;;;;;;5051468;28;20377;-56
2023/04/06 07:51:19;;;;;;;19.67;14.53;;;18.50;1.00;;;;;;5051556;28;20381;-54
2023/04/06 07:53:45;;;;;;;22.48;16.33;;;19.30;1.00;;;;;;5051786;28;20381;-55
2023/04/06 07:56:12;;;;;;;17.65;14.35;;;19.70;1.00;;;;;;5050747;28;20476;-55
2023/04/06 07:58:38;;;;;;;23.00;16.20;;;20.00;1.00;;;;;;5050199;28;20405;-55
2023/04/06 08:01:04;;;;;;;19.48;15.55;;;20.30;99.90;;;;;;5051164;28;20381;-55
2023/04/06 08:03:29;;;;;;;21.87;16.50;;;19.90;99.90;;;;;;5051512;28;20459;-55
2023/04/06 08:05:55;;;;;;;19.08;16.15;;;20.10;99.90;;;;;;5050930;28;20758;-55
2023/04/06 08:08:22;;;;;;;19.38;15.43;;;20.10;99.90;;;;;;5051105;28;20408;-55
2023/04/06 08:10:48;;;;;;;19.08;15.10;;;19.10;99.90;;;;;;5051677;28;20381;-55
2023/04/06 08:13:15;;;;;;;19.30;15.20;;;;;;;;;;5050118;28;21101;-55
2023/04/06 08:15:41;;;;;;;19.73;16.08;;;;;;;;;;5049983;28;20381;-55
2023/04/06 08:18:06;;;;;;;23.35;19.90;;;20.70;99.90;;;;;;5050985;28;20365;-56
2023/04/06 08:20:32;;;;;;;20.00;15.90;;;21.90;1.00;;;;;;5051313;28;20389;-55
2023/04/06 08:22:58;;;;;;;22.70;16.43;;;22.50;1.00;;;;;;5050283;28;20389;-55
2023/04/06 08:25:23;;;;;;;20.13;17.90;;;21.10;1.00;;;;;;5051649;28;20388;-55
2023/04/06 08:27:49;;;;;;;20.60;14.02;;;21.00;1.00;;;;;;5051167;28;20401;-55
2023/04/06 08:30:15;;;;;;;21.63;16.33;;;20.40;1.00;;;;;;5050348;28;20481;-55
2023/04/06 08:32:41;;;;;;;18.00;13.77;;;20.70;1.00;;;;;;5050728;28;20410;-55
2023/04/06 08:35:07;;;;;;;18.27;16.27;;;22.40;1.00;;;;;;5050132;28;20397;-56
2023/04/06 08:37:33;;;;;;;19.17;17.07;;;22.90;1.00;;;;;;5050919;28;20524;-56
2023/04/06 08:39:59;;;;;;;19.38;16.02;;;;;;;;;;5050535;28;21458;-56
2023/04/06 08:42:28;;;;;;;16.80;14.50;;;23.20;99.90;;;;;;5050564;28;20384;-55
2023/04/06 08:44:55;;;;;;;17.17;15.30;;;22.90;59.90;;;;;;5050909;28;20382;-55
2023/04/06 08:47:21;;;;;;;17.48;15.10;;;22.40;39.80;;;;;;5050227;28;20504;-56
2023/04/06 08:49:48;;;;;;;19.10;15.20;;;23.00;97.50;;;;;;5050968;28;20377;-56
2023/04/06 08:52:17;;;;;;;16.27;14.57;;;23.70;1.00;;;;;;5049857;28;20440;-56
2023/04/06 08:54:43;;;;;;;16.85;14.93;;;24.00;34.60;;;;;;5050581;28;20377;-57
2023/04/06 08:57:09;;;;;;;20.23;14.63;;;24.00;21.20;;;;;;5049708;28;20401;-55
2023/04/06 08:59:36;;;;;;;17.90;15.35;;;23.10;1.00;;;;;;5050199;28;20397;-57
2023/04/06 09:02:04;;;;;;;15.65;13.95;;;;;;;;;;5049452;28;20451;-55
2023/04/06 09:04:30;;;;;;;15.82;13.60;;;24.10;1.00;;;;;;5050452;28;20855;-55
2023/04/06 09:06:55;;;;;;;17.35;14.05;;;24.10;99.90;;;;;;5050485;28;20865;-56
2023/04/06 09:09:21;;;;;;;16.00;14.30;;;24.30;99.90;;;;;;5050198;28;20393;-56
2023/04/06 09:11:50;;;;;;;19.73;16.60;;;24.60;99.90;;;;;;5049763;28;20409;-56
2023/04/06 09:14:16;;;;;;;14.90;11.90;;;24.20;99.90;;;;;;5049777;28;20781;-56
2023/04/06 09:16:45;;;;;;;16.47;14.67;;;25.20;99.90;;;;;;5050391;28;20382;-56
2023/04/06 09:19:11;;;;;;;16.05;14.30;;;25.60;99.90;;;;;;5049335;28;20897;-56
2023/04/06 09:21:39;;;;;;;16.65;14.75;;;24.60;99.90;;;;;;5050026;28;20390;-56
2023/04/06 09:24:08;;;;;;;16.70;14.97;;;24.00;99.90;;;;;;5049275;28;20389;-56
2023/04/06 09:26:45;;;;;;;17.05;15.25;;;24.20;99.90;;;;;;5050144;28;20476;-56
2023/04/06 09:29:22;;;;;;;17.27;13.63;;;23.60;99.90;;;;;;5049004;28;20409;-55
2023/04/06 09:31:48;;;;;;;19.95;14.13;;;22.70;99.90;;;;;;5050263;28;20410;-56
2023/04/06 09:34:22;;;;;;;16.48;14.30;;;23.10;99.90;;;;;;5048921;28;20388;-56
2023/04/06 09:36:48;;;;;;;16.67;14.68;;;24.10;99.90;;;;;;5049763;28;20373;-56
2023/04/06 09:39:14;;;;;;;16.57;14.13;;;24.30;99.90;;;;;;5049090;28;20394;-56
2023/04/06 09:41:41;;;;;;;16.95;14.32;;;23.70;99.90;;;;;;5049812;28;20389;-56
2023/04/06 09:44:08;;;;;;;16.07;14.27;;;23.20;99.90;;;;;;5049190;28;20858;-56
2023/04/06 09:46:36;;;;;;;15.43;13.68;;;23.50;99.90;;;;;;5049762;28;20392;-56
2023/04/06 09:49:03;;;;;;;18.73;13.80;;;24.60;99.90;;;;;;5049022;28;20440;-56
2023/04/06 09:51:40;;;;;;;16.38;14.02;;;24.60;99.90;;;;;;5049469;28;20413;-56
2023/04/06 09:54:07;;;;;;;16.15;13.00;;;24.00;99.90;;;;;;5048489;28;20466;-56
2023/04/06 09:57:24;;;;;;;18.63;13.38;;;24.40;99.90;;;;;;5049604;28;20402;-56
2023/04/06 10:00:17;;;;;;;17.52;12.90;;;23.00;99.90;;;;;;4998801;28;20480;-55
2023/04/06 10:03:07;;;;;;;20.55;14.63;;;23.00;99.90;;;;;;5049447;28;20439;-55
2023/04/06 10:05:41;;;;;;;17.27;13.25;;;23.70;99.90;;;;;;5049842;28;20432;-56
2023/04/06 10:08:10;;;;;;;17.35;13.82;;;23.20;99.90;;;;;;5049199;28;20393;-56
2023/04/06 10:10:36;;;;;;;15.70;13.23;;;23.00;99.90;;;;;;5049012;28;20871;-56
2023/04/06 10:13:03;;;;;;;15.43;13.55;;;24.20;99.90;;;;;;5048227;28;20406;-56
2023/04/06 10:15:29;;;;;;;17.33;13.15;;;24.40;99.90;;;;;;5049564;28;20893;-56
2023/04/06 10:17:59;;;;;;;15.63;13.00;;;23.80;99.90;;;;;;5049202;28;20377;-56
2023/04/06 10:20:31;;;;;;;17.35;12.73;;;22.80;99.90;;;;;;5049670;28;20434;-56
2023/04/06 10:23:08;;;;;;;15.73;13.90;;;22.20;99.90;;;;;;5052375;28;20386;-56
2023/04/06 10:25:34;;;;;;;15.80;14.07;;;22.40;99.90;;;;;;5053024;28;20906;-56
2023/04/06 10:28:08;;;;;;;18.98;14.45;;;22.70;99.90;;;;;;5052344;28;20447;-56
2023/04/06 10:30:35;;;;;;;17.38;14.23;;;22.30;99.90;;;;;;5053273;28;20413;-56
2023/04/06 10:33:12;;;;;;;17.00;14.13;;;21.50;99.90;;;;;;5052407;28;20405;-56
2023/04/06 10:35:38;;;;;;;18.55;14.00;;;21.00;99.90;;;;;;5053363;28;20432;-55
2023/04/06 10:38:05;;;;;;;14.80;12.50;;;21.40;99.90;;;;;;5052201;28;20800;-56
2023/04/06 10:40:33;;;;;;;17.38;13.60;;;21.10;99.90;;;;;;5052614;28;20376;-56
2023/04/06 10:43:10;;;;;;;16.83;12.68;;;20.90;99.90;;;;;;5052554;28;20441;-56
2023/04/06 10:45:37;;;;;;;18.20;14.23;;;21.70;99.90;;;;;;5053432;28;20378;-55
2023/04/06 10:48:15;;;;;;;19.50;14.00;;;22.10;99.90;;;;;;5052233;28;20719;-56
2023/04/06 10:50:43;;;;;;;16.95;13.35;;;21.00;99.90;;;;;;5053302;28;20389;-55
2023/04/06 10:53:09;;;;;;;23.00;13.67;;;20.10;99.90;;;;;;5052848;28;20410;-56
2023/04/06 10:55:38;;;;;;;19.25;13.13;;;20.10;99.90;;;;;;5052771;28;20408;-55
2023/04/06 10:58:07;;;;;;;18.00;12.80;;;20.40;99.90;;;;;;5051796;28;21262;-55
2023/04/06 11:00:32;;;;;;;14.75;12.45;;;19.70;99.90;;;;;;5052212;28;20863;-55
2023/04/06 11:03:01;;;;;;;17.07;13.10;;;19.40;99.90;;;;;;5051901;28;20421;-56
2023/04/06 11:05:27;;;;;;;19.90;14.13;;;19.60;99.90;;;;;;5052431;28;20385;-55
2023/04/06 11:07:53;;;;;;;17.52;12.85;;;20.00;99.90;;;;;;5053051;28;20516;-55
2023/04/06 11:10:23;;;;;;;18.27;13.45;;;20.60;99.90;;;;;;5052056;28;20411;-55
2023/04/06 11:12:54;;;;;;;16.92;13.77;;;20.40;99.90;;;;;;5052508;28;20405;-55
2023/04/06 11:15:20;;;;;;;17.50;12.32;;;20.10;99.90;;;;;;5052080;28;20378;-56
2023/04/06 11:17:46;;;;;;;16.80;12.05;;;20.30;99.90;;;;;;5052723;28;20392;-56
2023/04/06 11:20:12;;;;;;;18.13;13.10;;;20.30;99.90;;;;;;5051992;28;20855;-56
2023/04/06 11:23:03;;;;;;;17.45;12.65;;;20.50;99.90;;;;;;5052523;28;20393;-56
2023/04/06 11:25:31;;;;;;;17.67;13.30;;;20.30;99.90;;;;;;5052504;28;20397;-57
2023/04/06 11:27:57;;;;;;;20.00;12.85;;;19.40;99.90;;;;;;5052377;28;20421;-56
2023/04/06 11:30:23;;;;;;;18.70;12.55;;;18.90;99.90;;;;;;5052453;28;20417;-56
2023/04/06 11:32:48;;;;;;;17.10;12.83;;;18.50;99.90;;;;;;5050935;28;20463;-55
2023/04/06 11:35:22;;;;;;;17.63;13.02;;;18.20;99.90;;;;;;5051119;28;20789;-56
2023/04/06 11:37:49;;;;;;;17.30;13.00;;;18.10;99.90;;;;;;5052247;28;20403;-55
2023/04/06 11:40:15;;;;;;;17.13;12.00;;;17.80;99.90;;;;;;5051121;28;20468;-55
2023/04/06 11:42:41;;;;;;;17.03;12.37;;;17.40;99.90;;;;;;5052225;28;20946;-55
2023/04/06 11:45:08;;;;;;;21.85;13.02;;;17.40;99.90;;;;;;5051862;28;20834;-55
2023/04/06 11:47:36;;;;;;;18.38;13.10;;;17.30;99.90;;;;;;5052264;28;20388;-59
2023/04/06 11:50:13;;;;;;;16.45;12.50;;;17.30;99.90;;;;;;5051085;28;20382;-56
2023/04/06 11:52:40;;;;;;;17.80;12.30;;;17.30;99.90;;;;;;5051840;28;21056;-55
2023/04/06 11:55:15;;;;;;;15.82;12.60;;;17.50;99.90;;;;;;5051082;28;20378;-55
2023/04/06 11:57:41;;;;;;;16.83;12.25;;;17.90;99.90;;;;;;5051631;28;20409;-55
2023/04/06 12:00:09;;;;;;;16.02;11.40;;;18.10;99.90;;;;;;5050793;28;20382;-55
2023/04/06 12:02:36;;;;;;;17.10;11.93;;;17.80;99.90;;;;;;5051461;28;20393;-55
2023/04/06 12:05:03;;;;;;;14.40;11.13;;;17.50;99.90;;;;;;5050795;28;20400;-56
2023/04/06 12:07:32;;;;;;;16.57;11.80;;;17.50;99.90;;;;;;5051364;28;20377;-55
2023/04/06 12:09:59;;;;;;;16.50;12.25;;;17.80;99.90;;;;;;5050789;28;20377;-56
2023/04/06 12:12:25;;;;;;;14.75;11.98;;;17.70;99.90;;;;;;5051329;28;20401;-55
2023/04/06 12:14:51;;;;;;;16.23;12.73;;;17.60;99.90;;;;;;5051319;28;20377;-55
2023/04/06 12:17:17;;;;;;;16.02;12.02;;;17.80;99.90;;;;;;5050348;28;20871;-55
2023/04/06 12:19:43;;;;;;;17.75;12.90;;;17.60;99.90;;;;;;5051756;28;20408;-55
2023/04/06 12:22:09;;;;;;;17.70;12.80;;;17.30;99.90;;;;;;5050417;28;20428;-55
2023/04/06 12:24:34;;;;;;;18.55;13.10;;;17.40;99.90;;;;;;5051351;28;20407;-55
2023/04/06 12:27:01;;;;;;;17.07;12.70;;;17.00;99.90;;;;;;5050840;28;20377;-56
2023/04/06 12:29:26;;;;;;;17.17;12.32;;;17.00;99.90;;;;;;5050443;28;20508;-55
2023/04/06 12:31:52;;;;;;;16.10;11.87;;;17.10;99.90;;;;;;5051372;28;20493;-55
2023/04/06 12:34:18;;;;;;;18.55;12.13;;;17.10;99.90;;;;;;5050104;28;20377;-55
2023/04/06 12:36:44;;;;;;;15.40;11.10;;;16.90;99.90;;;;;;5050857;28;20388;-55
2023/04/06 12:39:10;;;;;;;16.05;11.73;;;16.90;99.90;;;;;;5050443;28;20871;-55